Time;durP1;ratioP1;P1;durP2;ratioP2;P2;SDS_P1;SDS_P2;PMS_P1;PMS_P2;Temp;Humidity;BMP_temperature;BMP_pressure;BME280_temperature;BME280_humidity;BME280_pressure;Samples;Min_cycle;Max_cycle;Signal;HPM_P1;HPM_P2
2021/07/21 00:03:41;;;;;;;;;;;25.70;46.60;;;;;;8333342;28;19917;-49
2021/07/21 00:07:41;;;;;;;;;;;25.70;46.60;;;;;;8333382;28;20278;-47
2021/07/21 00:16:26;;;;;;;;;;;25.70;46.60;;;;;;8336136;28;19932;-48
2021/07/21 00:20:27;;;;;;;;;;;25.70;46.60;;;;;;8332662;28;19986;-49
2021/07/21 00:24:28;;;;;;;;;;;25.60;46.60;;;;;;8332647;28;19927;-50
2021/07/21 00:28:28;;;;;;;;;;;25.70;46.60;;;;;;8332367;28;19917;-48
2021/07/21 00:32:29;;;;;;;;;;;25.60;46.60;;;;;;8332722;28;19936;-48
2021/07/21 00:36:29;;;;;;;;;;;25.60;46.60;;;;;;8332188;28;20030;-48
2021/07/21 00:40:30;;;;;;;;;;;25.60;46.60;;;;;;8331564;28;19917;-47
2021/07/21 00:44:31;;;;;;;;;;;25.60;46.60;;;;;;8331773;28;20287;-48
2021/07/21 00:48:31;;;;;;;;;;;25.60;46.60;;;;;;8332517;28;19913;-48
2021/07/21 00:52:33;;;;;;;;;;;25.60;46.60;;;;;;8331806;28;20071;-49
2021/07/21 00:56:35;;;;;;;;;;;25.60;46.60;;;;;;8331308;28;19971;-48
2021/07/21 01:00:36;;;;;;;;;;;25.60;46.60;;;;;;8331549;28;19921;-48
2021/07/21 01:04:37;;;;;;;;;;;25.60;46.60;;;;;;8331294;28;20632;-47
2021/07/21 01:08:37;;;;;;;;;;;25.60;46.70;;;;;;8332047;28;20015;-47
2021/07/21 01:12:39;;;;;;;;;;;25.50;46.60;;;;;;8331331;28;19925;-50
2021/07/21 01:16:43;;;;;;;;;;;25.50;46.60;;;;;;8330793;28;19928;-47
2021/07/21 01:20:50;;;;;;;;;;;25.50;46.60;;;;;;8330831;28;19913;-48
2021/07/21 01:25:09;;;;;;;;;;;25.50;46.60;;;;;;8331534;28;20325;-49
2021/07/21 01:29:09;;;;;;;;;;;25.50;46.70;;;;;;8331187;28;19964;-48
2021/07/21 01:33:11;;;;;;;;;;;25.50;46.70;;;;;;8330611;28;19917;-48
2021/07/21 01:37:12;;;;;;;;;;;25.40;46.70;;;;;;8330376;28;20016;-48
2021/07/21 01:41:19;;;;;;;;;;;25.40;46.70;;;;;;8330097;28;19917;-48
2021/07/21 01:45:19;;;;;;;;;;;25.40;46.70;;;;;;8331188;28;19919;-48
2021/07/21 01:49:20;;;;;;;;;;;25.40;46.70;;;;;;8330356;28;20393;-49
2021/07/21 01:53:21;;;;;;;;;;;25.40;46.70;;;;;;8328812;28;20362;-48
2021/07/21 01:57:23;;;;;;;;;;;25.40;46.70;;;;;;8330304;28;19967;-48
2021/07/21 02:01:27;;;;;;;;;;;25.40;46.70;;;;;;8330577;28;19917;-48
2021/07/21 02:05:28;;;;;;;;;;;25.40;46.80;;;;;;8330056;28;19921;-48
2021/07/21 02:09:28;;;;;;;;;;;25.40;46.70;;;;;;8330374;28;20342;-48
2021/07/21 02:13:29;;;;;;;;;;;25.40;46.80;;;;;;8330119;28;19917;-48
2021/07/21 02:17:29;;;;;;;;;;;25.40;46.80;;;;;;8329477;28;19929;-51
2021/07/21 02:21:31;;;;;;;;;;;25.40;46.80;;;;;;8330529;28;19920;-48
2021/07/21 02:25:32;;;;;;;;;;;25.40;46.80;;;;;;8329854;28;19989;-49
2021/07/21 02:29:33;;;;;;;;;;;25.30;46.70;;;;;;8329495;28;19917;-48
2021/07/21 02:33:52;;;;;;;;;;;25.30;46.70;;;;;;8329534;28;19918;-47
2021/07/21 02:37:53;;;;;;;;;;;25.30;46.80;;;;;;8329541;28;19921;-48
2021/07/21 02:41:54;;;;;;;;;;;25.30;46.70;;;;;;8330235;28;19913;-50
2021/07/21 02:45:55;;;;;;;;;;;25.30;46.80;;;;;;8329493;28;20031;-49
2021/07/21 02:49:56;;;;;;;;;;;25.20;46.70;;;;;;8329068;28;19940;-50
2021/07/21 02:54:02;;;;;;;;;;;25.20;46.70;;;;;;8329356;28;19927;-48
2021/07/21 02:58:17;;;;;;;;;;;25.20;46.70;;;;;;8330239;28;20433;-48
2021/07/21 03:02:21;;;;;;;;;;;25.20;46.70;;;;;;8328832;28;19921;-48
2021/07/21 03:06:24;;;;;;;;;;;25.20;46.70;;;;;;8334173;28;19921;-47
2021/07/21 03:10:25;;;;;;;;;;;25.20;46.70;;;;;;8334960;28;19924;-48
2021/07/21 03:14:25;;;;;;;;;;;25.20;46.80;;;;;;8334522;28;19919;-48
2021/07/21 03:18:26;;;;;;;;;;;25.20;46.80;;;;;;8335543;28;19921;-51
2021/07/21 03:22:27;;;;;;;;;;;25.20;47.30;;;;;;8334781;28;20000;-50
2021/07/21 03:26:30;;;;;;;;;;;25.20;46.80;;;;;;8333855;28;19921;-50
2021/07/21 03:30:31;;;;;;;;;;;25.20;46.80;;;;;;8334376;28;19921;-48
2021/07/21 03:34:33;;;;;;;;;;;25.10;46.70;;;;;;8334899;28;19913;-48
2021/07/21 03:38:33;;;;;;;;;;;25.10;46.80;;;;;;8333794;28;20433;-47
2021/07/21 03:42:35;;;;;;;;;;;25.10;46.80;;;;;;8334299;28;19963;-49
2021/07/21 03:46:39;;;;;;;;;;;25.00;46.70;;;;;;8333705;28;19917;-48
2021/07/21 03:50:40;;;;;;;;;;;25.10;46.80;;;;;;8333958;28;19917;-48
2021/07/21 03:54:41;;;;;;;;;;;25.00;46.80;;;;;;8334060;28;19925;-48
2021/07/21 03:58:41;;;;;;;;;;;25.10;46.90;;;;;;8333214;28;19920;-48
2021/07/21 04:02:42;;;;;;;;;;;25.00;46.80;;;;;;8333477;28;19924;-47
2021/07/21 04:06:44;;;;;;;;;;;25.00;46.80;;;;;;8333770;28;19921;-49
2021/07/21 04:10:47;;;;;;;;;;;25.00;46.90;;;;;;8333267;28;19920;-48
2021/07/21 04:14:48;;;;;;;;;;;25.00;46.80;;;;;;8332118;28;19917;-49
2021/07/21 04:18:49;;;;;;;;;;;25.00;46.90;;;;;;8332943;28;19921;-49
2021/07/21 04:22:50;;;;;;;;;;;25.00;46.80;;;;;;8332379;28;19924;-47
2021/07/21 04:26:50;;;;;;;;;;;25.00;46.90;;;;;;8333430;28;19959;-48
2021/07/21 04:30:54;;;;;;;;;;;24.90;46.80;;;;;;8332738;28;19929;-49
2021/07/21 04:34:55;;;;;;;;;;;25.00;46.90;;;;;;8331849;28;21880;-49
2021/07/21 04:38:55;;;;;;;;;;;24.90;46.80;;;;;;8332606;28;19917;-49
2021/07/21 04:42:55;;;;;;;;;;;24.90;46.90;;;;;;8332296;28;19925;-48
2021/07/21 04:46:58;;;;;;;;;;;24.90;46.90;;;;;;8332174;28;20274;-49
2021/07/21 04:50:59;;;;;;;;;;;24.90;46.80;;;;;;8332211;28;20000;-48
2021/07/21 04:54:59;;;;;;;;;;;24.90;46.90;;;;;;8331920;28;20286;-48
2021/07/21 04:59:00;;;;;;;;;;;24.90;46.90;;;;;;8331397;28;19917;-49
2021/07/21 05:03:05;;;;;;;;;;;24.80;46.80;;;;;;8332518;28;19921;-48
2021/07/21 05:07:06;;;;;;;;;;;24.90;46.90;;;;;;8331980;28;19928;-51
2021/07/21 05:11:06;;;;;;;;;;;24.90;46.90;;;;;;8330921;28;19917;-48
2021/07/21 05:15:07;;;;;;;;;;;24.90;46.90;;;;;;8330947;28;19971;-48
2021/07/21 05:19:09;;;;;;;;;;;24.90;46.90;;;;;;8330869;28;19917;-49
2021/07/21 05:23:10;;;;;;;;;;;24.80;46.80;;;;;;8328877;28;19914;-50
2021/07/21 05:27:10;;;;;;;;;;;24.80;46.80;;;;;;8297764;28;19996;-48
2021/07/21 05:31:11;;;;;;;;;;;24.80;46.80;;;;;;8298275;28;19940;-49
2021/07/21 05:35:11;;;;;;;;;;;24.80;46.80;;;;;;8297410;28;19925;-49
2021/07/21 05:39:12;;;;;;;;;;;24.80;46.70;;;;;;8299011;28;19920;-48
2021/07/21 05:43:12;;;;;;;;;;;24.90;46.70;;;;;;8297925;28;19925;-49
2021/07/21 05:47:13;;;;;;;;;;;25.00;46.60;;;;;;8297435;28;19917;-53
2021/07/21 05:51:13;;;;;;;;;;;25.00;46.50;;;;;;8297774;28;19922;-48
2021/07/21 05:55:14;;;;;;;;;;;25.00;46.50;;;;;;8298283;28;20298;-49
2021/07/21 05:59:15;;;;;;;;;;;25.00;46.40;;;;;;8297000;28;20378;-48
2021/07/21 06:03:18;;;;;;;;;;;24.90;46.40;;;;;;8297388;28;19917;-48
2021/07/21 06:07:19;;;;;;;;;;;24.90;46.40;;;;;;8298081;28;19957;-50
2021/07/21 06:11:19;;;;;;;;;;;24.90;46.40;;;;;;8297048;28;20359;-49
2021/07/21 06:15:26;;;;;;;;;;;24.90;46.50;;;;;;8298115;28;20333;-49
2021/07/21 06:19:27;;;;;;;;;;;24.90;46.50;;;;;;8300522;28;19921;-49
2021/07/21 06:23:27;;;;;;;;;;;24.80;46.50;;;;;;8296641;28;19918;-48
2021/07/21 06:27:28;;;;;;;;;;;24.80;46.50;;;;;;8296838;28;19922;-51
2021/07/21 06:31:29;;;;;;;;;;;24.80;46.50;;;;;;8297559;28;20432;-49
2021/07/21 06:35:29;;;;;;;;;;;24.80;46.50;;;;;;8296506;28;19926;-48
2021/07/21 06:39:30;;;;;;;;;;;24.80;46.50;;;;;;8299484;28;19921;-48
2021/07/21 06:43:30;;;;;;;;;;;24.80;46.50;;;;;;8303001;28;20406;-48
2021/07/21 06:47:31;;;;;;;;;;;24.80;46.50;;;;;;8301867;28;19920;-47
2021/07/21 06:51:31;;;;;;;;;;;24.80;46.50;;;;;;8306340;28;19925;-50
2021/07/21 06:55:32;;;;;;;;;;;24.80;46.40;;;;;;8308001;28;20294;-51
2021/07/21 06:59:32;;;;;;;;;;;24.80;46.40;;;;;;8313667;28;19936;-49
2021/07/21 07:03:33;;;;;;;;;;;24.80;46.40;;;;;;8303690;28;19929;-48
2021/07/21 07:07:34;;;;;;;;;;;24.80;46.50;;;;;;8302174;28;19921;-48
2021/07/21 07:11:34;;;;;;;;;;;24.80;46.40;;;;;;8306221;28;19925;-48
2021/07/21 07:15:34;;;;;;;;;;;24.80;46.40;;;;;;8308305;28;19932;-48
2021/07/21 07:19:35;;;;;;;;;;;24.80;46.40;;;;;;8306077;28;19940;-48
2021/07/21 07:23:36;;;;;;;;;;;24.80;46.40;;;;;;8308374;28;20262;-47
2021/07/21 07:27:36;;;;;;;;;;;24.80;46.50;;;;;;8309378;28;20330;-48
2021/07/21 07:31:37;;;;;;;;;;;24.80;46.40;;;;;;8306590;28;20401;-48
2021/07/21 07:35:40;;;;;;;;;;;24.80;46.50;;;;;;8306622;28;19929;-49
2021/07/21 07:39:40;;;;;;;;;;;24.80;46.50;;;;;;8306381;28;19999;-47
2021/07/21 07:43:41;;;;;;;;;;;24.80;46.50;;;;;;8303664;28;20432;-48
2021/07/21 07:47:42;;;;;;;;;;;24.80;46.50;;;;;;8313029;28;19925;-48
2021/07/21 07:51:43;;;;;;;;;;;24.80;46.50;;;;;;8312705;28;19945;-49
2021/07/21 07:55:43;;;;;;;;;;;24.80;46.50;;;;;;8303891;28;19932;-48
2021/07/21 07:59:44;;;;;;;;;;;24.80;46.50;;;;;;8299950;28;19917;-48
2021/07/21 08:03:44;;;;;;;;;;;24.80;46.60;;;;;;8306733;28;19972;-48
2021/07/21 08:07:45;;;;;;;;;;;24.80;46.60;;;;;;8305674;28;19925;-49
2021/07/21 08:11:48;;;;;;;;;;;24.80;47.10;;;;;;8309763;28;19997;-49
2021/07/21 08:15:49;;;;;;;;;;;24.80;46.60;;;;;;8303520;28;20022;-48
2021/07/21 08:19:50;;;;;;;;;;;24.80;46.60;;;;;;8313438;28;19917;-47
2021/07/21 08:23:51;;;;;;;;;;;24.90;46.70;;;;;;8298590;28;19921;-48
2021/07/21 08:27:52;;;;;;;;;;;24.90;46.70;;;;;;8299667;28;20013;-48
2021/07/21 08:31:53;;;;;;;;;;;24.90;46.70;;;;;;8302571;28;19978;-49
2021/07/21 08:35:53;;;;;;;;;;;24.90;46.70;;;;;;8313840;28;20356;-50
2021/07/21 08:39:54;;;;;;;;;;;24.90;46.70;;;;;;8298666;28;19924;-48
2021/07/21 08:43:55;;;;;;;;;;;24.90;46.70;;;;;;8318845;28;19923;-50
2021/07/21 08:47:55;;;;;;;;;;;24.90;46.80;;;;;;8307329;28;19964;-49
2021/07/21 08:51:56;;;;;;;;;;;24.90;46.70;;;;;;8299796;28;19913;-49
2021/07/21 08:55:58;;;;;;;;;;;24.90;46.70;;;;;;8298320;28;20386;-49
2021/07/21 08:59:58;;;;;;;;;;;25.00;46.80;;;;;;8298967;28;20353;-49
2021/07/21 09:03:59;;;;;;;;;;;25.00;46.80;;;;;;8298564;28;19918;-49
2021/07/21 09:08:00;;;;;;;;;;;25.00;46.80;;;;;;8298544;28;19929;-48
2021/07/21 09:12:00;;;;;;;;;;;25.00;46.80;;;;;;8299518;28;19924;-49
2021/07/21 09:16:02;;;;;;;;;;;25.00;46.80;;;;;;8298702;28;19933;-49
2021/07/21 09:20:03;;;;;;;;;;;25.00;46.80;;;;;;8297232;28;19917;-49
2021/07/21 09:24:04;;;;;;;;;;;25.00;46.80;;;;;;8298482;28;20433;-49
2021/07/21 09:28:05;;;;;;;;;;;25.00;46.80;;;;;;8298937;28;19917;-48
2021/07/21 09:32:06;;;;;;;;;;;25.00;46.80;;;;;;8297916;28;19918;-48
2021/07/21 09:36:06;;;;;;;;;;;25.10;46.80;;;;;;8297831;28;19925;-49
2021/07/21 09:40:07;;;;;;;;;;;25.10;46.90;;;;;;8297953;28;19920;-49
2021/07/21 09:44:08;;;;;;;;;;;25.10;46.90;;;;;;8297998;28;19929;-52
2021/07/21 09:48:09;;;;;;;;;;;25.10;46.80;;;;;;8298087;28;20271;-53
2021/07/21 09:52:18;;;;;;;;;;;25.10;46.80;;;;;;8298043;28;19918;-50
2021/07/21 09:56:31;;;;;;;;;;;25.10;46.80;;;;;;8298406;28;19929;-49
2021/07/21 10:00:33;;;;;;;;;;;25.20;46.90;;;;;;8297818;28;20354;-50
2021/07/21 10:04:39;;;;;;;;;;;25.20;46.90;;;;;;8298318;28;19917;-52
2021/07/21 10:08:40;;;;;;;;;;;25.20;46.90;;;;;;8296962;28;20298;-49
2021/07/21 10:12:41;;;;;;;;;;;25.20;46.90;;;;;;8297485;28;20012;-49
2021/07/21 10:16:41;;;;;;;;;;;25.30;46.90;;;;;;8303059;28;19925;-48
2021/07/21 10:20:43;;;;;;;;;;;25.20;46.90;;;;;;8304614;28;20367;-49
2021/07/21 10:24:44;;;;;;;;;;;25.30;46.90;;;;;;8304210;28;19997;-48
2021/07/21 10:28:44;;;;;;;;;;;25.30;46.90;;;;;;8303284;28;19913;-48
2021/07/21 10:32:45;;;;;;;;;;;25.30;46.90;;;;;;8303666;28;19918;-49
2021/07/21 10:36:46;;;;;;;;;;;25.30;46.90;;;;;;8303311;28;19925;-49
2021/07/21 10:40:47;;;;;;;;;;;25.40;47.00;;;;;;8303659;28;19921;-49
2021/07/21 10:44:57;;;;;;;;;;;25.40;46.90;;;;;;8303404;28;20010;-50
2021/07/21 10:49:05;;;;;;;;;;;25.40;47.10;;;;;;8303064;28;20367;-49
2021/07/21 10:53:22;;;;;;;;;;;25.40;46.90;;;;;;8302465;28;20023;-49
2021/07/21 11:01:46;;;;;;;;;;;25.40;46.90;;;;;;8303931;28;19952;-50
2021/07/21 11:05:56;;;;;;;;;;;25.50;47.00;;;;;;8301958;28;19921;-49
2021/07/21 11:10:03;;;;;;;;;;;25.50;46.90;;;;;;8300543;28;19940;-49
2021/07/21 11:14:06;;;;;;;;;;;25.50;47.00;;;;;;8282497;28;19921;-50
2021/07/21 11:18:21;;;;;;;;;;;25.50;46.90;;;;;;8300432;28;19921;-48
2021/07/21 11:22:22;;;;;;;;;;;25.60;46.90;;;;;;8300928;28;19956;-48
2021/07/21 11:26:31;;;;;;;;;;;25.60;46.90;;;;;;8299234;28;20295;-49
2021/07/21 11:30:32;;;;;;;;;;;25.60;46.90;;;;;;8300250;28;19918;-49
2021/07/21 11:34:37;;;;;;;;;;;25.60;46.90;;;;;;8299936;28;19917;-49
2021/07/21 11:38:45;;;;;;;;;;;25.60;46.80;;;;;;8299893;28;20352;-50
2021/07/21 11:42:45;;;;;;;;;;;25.60;46.80;;;;;;8300394;28;20334;-49
2021/07/21 11:46:47;;;;;;;;;;;25.70;46.90;;;;;;8299203;28;19918;-51
2021/07/21 11:50:48;;;;;;;;;;;25.70;46.90;;;;;;8299519;28;19952;-48
2021/07/21 11:54:49;;;;;;;;;;;25.70;46.80;;;;;;8299437;28;19932;-48
2021/07/21 11:58:49;;;;;;;;;;;25.70;46.80;;;;;;8299806;28;19925;-48
2021/07/21 12:02:59;;;;;;;;;;;25.80;46.90;;;;;;8299460;28;19949;-48
2021/07/21 12:07:00;;;;;;;;;;;25.80;46.80;;;;;;8239593;28;1730705;-49
2021/07/21 12:11:10;;;;;;;;;;;25.80;46.80;;;;;;8300208;28;19921;-49
2021/07/21 12:15:17;;;;;;;;;;;25.80;46.80;;;;;;8300948;28;20324;-48
2021/07/21 12:19:23;;;;;;;;;;;25.90;46.80;;;;;;8301098;28;19914;-49
2021/07/21 12:23:26;;;;;;;;;;;25.90;46.80;;;;;;8299830;28;19922;-51
2021/07/21 12:27:32;;;;;;;;;;;25.90;46.80;;;;;;8300233;28;19918;-48
2021/07/21 12:31:33;;;;;;;;;;;25.90;46.80;;;;;;8300217;28;20350;-50
2021/07/21 12:35:34;;;;;;;;;;;25.90;46.70;;;;;;8299679;28;19925;-47
2021/07/21 12:39:34;;;;;;;;;;;25.90;46.70;;;;;;8299577;28;20375;-48
2021/07/21 12:43:35;;;;;;;;;;;25.90;46.60;;;;;;8299644;28;19922;-48
2021/07/21 12:47:36;;;;;;;;;;;26.00;46.60;;;;;;8299118;28;19945;-48
2021/07/21 12:51:37;;;;;;;;;;;26.00;46.60;;;;;;8299312;28;20052;-51
2021/07/21 12:55:39;;;;;;;;;;;26.00;46.60;;;;;;8299787;28;19921;-49
2021/07/21 12:59:39;;;;;;;;;;;26.10;46.60;;;;;;8298538;28;20001;-48
2021/07/21 13:03:47;;;;;;;;;;;26.10;46.60;;;;;;8299049;28;19918;-52
2021/07/21 13:07:54;;;;;;;;;;;26.10;46.50;;;;;;8298518;28;19921;-49
2021/07/21 13:11:54;;;;;;;;;;;26.10;46.60;;;;;;8299391;28;19913;-52
2021/07/21 13:16:09;;;;;;;;;;;26.10;46.50;;;;;;8298605;28;20346;-49
2021/07/21 13:20:09;;;;;;;;;;;26.10;46.60;;;;;;8298080;28;20004;-48
2021/07/21 13:24:12;;;;;;;;;;;26.20;46.60;;;;;;8298437;28;19918;-48
2021/07/21 13:28:23;;;;;;;;;;;26.20;46.70;;;;;;8298367;28;19913;-52
2021/07/21 13:32:25;;;;;;;;;;;26.20;46.70;;;;;;8298622;28;19947;-52
2021/07/21 13:36:38;;;;;;;;;;;26.20;46.70;;;;;;8298095;28;19926;-51
2021/07/21 13:40:39;;;;;;;;;;;26.20;46.70;;;;;;8298203;28;20020;-47
2021/07/21 13:44:40;;;;;;;;;;;26.20;46.70;;;;;;8298030;28;19917;-49
2021/07/21 13:48:40;;;;;;;;;;;26.20;46.60;;;;;;8298739;28;19913;-49
2021/07/21 13:52:41;;;;;;;;;;;26.20;46.60;;;;;;8297524;28;20375;-48
2021/07/21 13:56:42;;;;;;;;;;;26.20;46.60;;;;;;8297963;28;19925;-51
2021/07/21 14:00:44;;;;;;;;;;;26.20;46.60;;;;;;8297784;28;19917;-51
2021/07/21 14:04:44;;;;;;;;;;;26.20;46.50;;;;;;8297153;28;19917;-52
2021/07/21 14:08:45;;;;;;;;;;;26.30;46.60;;;;;;8298413;28;19929;-51
2021/07/21 14:12:45;;;;;;;;;;;26.30;46.50;;;;;;8297549;28;19917;-52
2021/07/21 14:16:46;;;;;;;;;;;26.30;47.10;;;;;;8296968;28;19922;-52
2021/07/21 14:20:47;;;;;;;;;;;26.30;46.50;;;;;;8297701;28;19968;-50
2021/07/21 14:24:47;;;;;;;;;;;26.30;46.50;;;;;;8297993;28;20367;-48
2021/07/21 14:28:48;;;;;;;;;;;26.30;46.60;;;;;;8296970;28;19921;-50
2021/07/21 14:32:48;;;;;;;;;;;26.30;46.50;;;;;;8297589;28;19928;-47
2021/07/21 14:36:49;;;;;;;;;;;26.40;46.60;;;;;;8297455;28;19926;-49
2021/07/21 14:40:50;;;;;;;;;;;26.30;46.40;;;;;;8296648;28;19917;-48
2021/07/21 14:44:50;;;;;;;;;;;26.30;46.50;;;;;;8298023;28;19957;-48
2021/07/21 14:48:51;;;;;;;;;;;26.40;46.50;;;;;;8296852;28;19924;-51
2021/07/21 14:52:51;;;;;;;;;;;26.40;46.50;;;;;;8296504;28;20222;-50
2021/07/21 14:56:52;;;;;;;;;;;26.40;46.40;;;;;;8296766;28;19933;-51
2021/07/21 15:00:52;;;;;;;;;;;26.40;46.30;;;;;;8300448;28;19921;-53
2021/07/21 15:04:53;;;;;;;;;;;26.40;46.40;;;;;;8302201;28;20421;-51
2021/07/21 15:08:53;;;;;;;;;;;26.50;46.40;;;;;;8303173;28;20375;-51
2021/07/21 15:12:54;;;;;;;;;;;26.50;46.40;;;;;;8302687;28;19921;-51
2021/07/21 15:16:54;;;;;;;;;;;26.40;46.20;;;;;;8302444;28;19925;-51
2021/07/21 15:20:55;;;;;;;;;;;26.40;46.20;;;;;;8302511;28;19921;-52
2021/07/21 15:24:55;;;;;;;;;;;26.40;46.10;;;;;;8302255;28;19918;-52
2021/07/21 15:28:56;;;;;;;;;;;26.50;46.20;;;;;;8301662;28;19920;-52
2021/07/21 15:32:56;;;;;;;;;;;26.50;46.20;;;;;;8302114;28;20005;-51
2021/07/21 15:36:57;;;;;;;;;;;26.50;46.20;;;;;;8302554;28;20009;-52
2021/07/21 15:40:57;;;;;;;;;;;26.50;46.20;;;;;;8301272;28;19920;-48
2021/07/21 15:44:58;;;;;;;;;;;26.50;46.20;;;;;;8301932;28;19918;-49
2021/07/21 15:48:58;;;;;;;;;;;26.50;46.20;;;;;;8301396;28;19924;-48
2021/07/21 15:52:59;;;;;;;;;;;26.50;46.20;;;;;;8301556;28;19922;-48
2021/07/21 15:56:59;;;;;;;;;;;26.50;46.20;;;;;;8301110;28;20305;-49
2021/07/21 16:01:00;;;;;;;;;;;26.50;46.10;;;;;;8301003;28;19967;-48
2021/07/21 16:05:00;;;;;;;;;;;26.50;46.00;;;;;;8300558;28;19917;-48
2021/07/21 16:09:02;;;;;;;;;;;26.50;46.10;;;;;;8301437;28;19928;-48
2021/07/21 16:13:03;;;;;;;;;;;26.50;46.20;;;;;;8299626;28;19921;-50
2021/07/21 16:17:04;;;;;;;;;;;26.60;46.20;;;;;;8299986;28;19932;-52
2021/07/21 16:21:08;;;;;;;;;;;26.50;46.10;;;;;;8300896;28;19917;-52
2021/07/21 16:25:08;;;;;;;;;;;26.50;46.10;;;;;;8300478;28;19949;-48
2021/07/21 16:29:11;;;;;;;;;;;26.50;46.10;;;;;;8300325;28;20277;-49
2021/07/21 16:33:11;;;;;;;;;;;26.50;46.20;;;;;;8300229;28;19917;-48
2021/07/21 16:37:12;;;;;;;;;;;26.50;46.20;;;;;;8299676;28;19929;-50
2021/07/21 16:41:12;;;;;;;;;;;26.50;46.10;;;;;;8299258;28;20378;-51
2021/07/21 16:45:14;;;;;;;;;;;26.50;46.10;;;;;;8300402;28;20383;-51
2021/07/21 16:49:14;;;;;;;;;;;26.50;46.10;;;;;;8299466;28;20398;-51
2021/07/21 16:53:15;;;;;;;;;;;26.60;46.20;;;;;;8299023;28;19932;-52
2021/07/21 16:57:16;;;;;;;;;;;26.50;46.10;;;;;;8299852;28;19975;-50
2021/07/21 17:01:17;;;;;;;;;;;26.60;46.50;;;;;;8300522;28;19917;-50
2021/07/21 17:05:19;;;;;;;;;;;26.50;46.20;;;;;;8305875;28;20378;-47
2021/07/21 17:09:20;;;;;;;;;;;26.50;46.20;;;;;;8305632;28;20264;-48
2021/07/21 17:13:20;;;;;;;;;;;26.50;46.20;;;;;;8296802;28;19922;-50
2021/07/21 17:17:20;;;;;;;;;;;26.50;46.20;;;;;;8305530;28;19925;-48
2021/07/21 17:21:21;;;;;;;;;;;26.50;46.10;;;;;;8324577;28;19917;-48
2021/07/21 17:25:22;;;;;;;;;;;26.60;46.10;;;;;;8322672;28;19917;-49
2021/07/21 17:29:23;;;;;;;;;;;26.60;46.20;;;;;;8324767;28;19917;-51
2021/07/21 17:33:23;;;;;;;;;;;26.50;46.10;;;;;;8322306;28;19917;-49
2021/07/21 17:37:23;;;;;;;;;;;26.50;46.10;;;;;;8317142;28;19994;-51
2021/07/21 17:41:24;;;;;;;;;;;26.50;46.10;;;;;;8298674;28;19944;-52
2021/07/21 17:45:25;;;;;;;;;;;26.50;46.10;;;;;;8297758;28;20458;-52
2021/07/21 17:49:25;;;;;;;;;;;26.50;46.10;;;;;;8297430;28;19918;-50
2021/07/21 17:53:26;;;;;;;;;;;26.50;46.10;;;;;;8296944;28;19924;-48
2021/07/21 17:57:26;;;;;;;;;;;26.60;46.20;;;;;;8298257;28;19933;-51
2021/07/21 18:01:28;;;;;;;;;;;26.50;46.10;;;;;;8297445;28;19917;-50
2021/07/21 18:05:29;;;;;;;;;;;26.50;46.20;;;;;;8298766;28;19922;-51
2021/07/21 18:09:29;;;;;;;;;;;26.50;46.10;;;;;;8297287;28;19928;-47
2021/07/21 18:13:30;;;;;;;;;;;26.50;46.20;;;;;;8312939;28;19921;-50
2021/07/21 18:17:31;;;;;;;;;;;26.50;46.10;;;;;;8299569;28;19926;-49
2021/07/21 18:21:31;;;;;;;;;;;26.50;46.20;;;;;;8328417;28;20354;-49
2021/07/21 18:25:32;;;;;;;;;;;26.50;46.20;;;;;;8343255;28;19925;-52
2021/07/21 18:29:33;;;;;;;;;;;26.50;46.20;;;;;;8297413;28;20000;-49
2021/07/21 18:33:33;;;;;;;;;;;26.50;46.20;;;;;;8297013;28;20378;-49
2021/07/21 18:37:34;;;;;;;;;;;26.50;46.80;;;;;;8302740;28;19933;-51
2021/07/21 18:41:34;;;;;;;;;;;26.50;46.90;;;;;;8302590;28;19918;-48
2021/07/21 18:45:34;;;;;;;;;;;26.40;47.10;;;;;;8302526;28;19922;-47
2021/07/21 18:49:35;;;;;;;;;;;26.30;47.40;;;;;;8303571;28;19960;-47
2021/07/21 18:53:36;;;;;;;;;;;26.30;47.50;;;;;;8302662;28;20305;-46
2021/07/21 18:57:38;;;;;;;;;;;26.30;48.00;;;;;;8302465;28;19929;-47
2021/07/21 19:01:38;;;;;;;;;;;26.20;47.70;;;;;;8302273;28;20402;-47
2021/07/21 19:05:39;;;;;;;;;;;26.20;48.00;;;;;;8307457;28;19937;-48
2021/07/21 19:09:39;;;;;;;;;;;26.20;48.00;;;;;;8324308;28;19953;-49
2021/07/21 19:13:40;;;;;;;;;;;26.10;48.00;;;;;;8301443;28;20314;-51
2021/07/21 19:17:41;;;;;;;;;;;26.20;47.90;;;;;;8320942;28;20297;-48
2021/07/21 19:21:41;;;;;;;;;;;26.20;47.60;;;;;;8315646;28;19913;-49
2021/07/21 19:25:42;;;;;;;;;;;26.20;48.10;;;;;;8334132;28;20000;-49
2021/07/21 19:29:43;;;;;;;;;;;26.20;47.40;;;;;;8334807;28;20007;-48
2021/07/21 19:33:43;;;;;;;;;;;26.20;47.40;;;;;;8334554;28;19953;-49
2021/07/21 19:37:44;;;;;;;;;;;26.30;47.40;;;;;;8334041;28;19932;-49
2021/07/21 19:41:45;;;;;;;;;;;26.30;47.30;;;;;;8335142;28;20370;-49
2021/07/21 19:45:45;;;;;;;;;;;26.30;47.30;;;;;;8334018;28;19945;-48
2021/07/21 19:49:46;;;;;;;;;;;26.30;47.30;;;;;;8333644;28;19924;-48
2021/07/21 19:53:46;;;;;;;;;;;26.30;47.30;;;;;;8334102;28;19921;-48
2021/07/21 19:57:47;;;;;;;;;;;26.30;47.30;;;;;;8334656;28;20381;-49
2021/07/21 20:01:47;;;;;;;;;;;26.30;47.30;;;;;;8333260;28;19917;-49
2021/07/21 20:05:48;;;;;;;;;;;26.30;47.30;;;;;;8333629;28;19921;-47
2021/07/21 20:09:48;;;;;;;;;;;26.30;47.30;;;;;;8331962;28;19939;-48
2021/07/21 20:13:49;;;;;;;;;;;26.30;47.30;;;;;;8332687;28;19917;-48
2021/07/21 20:17:49;;;;;;;;;;;26.30;47.30;;;;;;8333805;28;20304;-48
2021/07/21 20:21:51;;;;;;;;;;;26.30;47.30;;;;;;8333303;28;20354;-48
2021/07/21 20:25:51;;;;;;;;;;;26.30;47.30;;;;;;8332393;28;19917;-48
2021/07/21 20:29:51;;;;;;;;;;;26.30;47.30;;;;;;8332791;28;19918;-48
2021/07/21 20:33:54;;;;;;;;;;;26.30;47.30;;;;;;8333563;28;19917;-49
2021/07/21 20:37:54;;;;;;;;;;;26.30;47.30;;;;;;8332108;28;19925;-48
2021/07/21 20:41:55;;;;;;;;;;;26.20;47.20;;;;;;8332693;28;19924;-48
2021/07/21 20:45:55;;;;;;;;;;;26.30;47.30;;;;;;8314436;28;19917;-50
2021/07/21 20:49:56;;;;;;;;;;;26.30;47.30;;;;;;8332614;28;20294;-49
2021/07/21 20:53:57;;;;;;;;;;;26.30;47.30;;;;;;8332388;28;19917;-48
2021/07/21 20:57:57;;;;;;;;;;;26.20;47.30;;;;;;8331416;28;20039;-49
2021/07/21 21:01:58;;;;;;;;;;;26.20;47.80;;;;;;8331555;28;19917;-49
2021/07/21 21:05:58;;;;;;;;;;;26.20;47.20;;;;;;8331806;28;19936;-50
2021/07/21 21:09:59;;;;;;;;;;;26.20;47.20;;;;;;8332456;28;19921;-48
2021/07/21 21:13:59;;;;;;;;;;;26.20;47.20;;;;;;8331052;28;19925;-47
2021/07/21 21:18:00;;;;;;;;;;;26.20;47.20;;;;;;8331393;28;19964;-52
2021/07/21 21:22:00;;;;;;;;;;;26.20;47.20;;;;;;8331363;28;19923;-48
2021/07/21 21:26:01;;;;;;;;;;;26.20;47.20;;;;;;8331933;28;19920;-49
2021/07/21 21:30:03;;;;;;;;;;;26.20;47.30;;;;;;8331142;28;19954;-48
2021/07/21 21:34:03;;;;;;;;;;;26.20;47.20;;;;;;8331135;28;20247;-49
2021/07/21 21:38:04;;;;;;;;;;;26.20;47.20;;;;;;8330567;28;19933;-47
2021/07/21 21:42:04;;;;;;;;;;;26.20;47.30;;;;;;8331414;28;19913;-48
2021/07/21 21:46:05;;;;;;;;;;;26.20;47.20;;;;;;8331072;28;20008;-48
2021/07/21 21:50:06;;;;;;;;;;;26.20;47.20;;;;;;8330311;28;20404;-49
2021/07/21 21:54:06;;;;;;;;;;;26.20;47.20;;;;;;8330516;28;20348;-48
2021/07/21 21:58:07;;;;;;;;;;;26.20;47.20;;;;;;8330647;28;19971;-47
2021/07/21 22:02:07;;;;;;;;;;;26.20;47.20;;;;;;8329888;28;19913;-48
2021/07/21 22:06:08;;;;;;;;;;;26.20;47.30;;;;;;8285396;28;19928;-48
2021/07/21 22:10:09;;;;;;;;;;;26.20;47.20;;;;;;8301423;28;20340;-50
2021/07/21 22:14:10;;;;;;;;;;;26.20;47.20;;;;;;8303672;28;19917;-48
2021/07/21 22:18:11;;;;;;;;;;;26.10;47.20;;;;;;8305159;28;19926;-48
2021/07/21 22:22:12;;;;;;;;;;;26.10;47.20;;;;;;8304072;28;19917;-48
2021/07/21 22:26:13;;;;;;;;;;;26.10;47.20;;;;;;8303331;28;19925;-48
2021/07/21 22:30:14;;;;;;;;;;;26.10;47.20;;;;;;8303955;28;19918;-49
2021/07/21 22:34:19;;;;;;;;;;;26.10;47.20;;;;;;8303321;28;19917;-51
2021/07/21 22:38:20;;;;;;;;;;;26.10;47.70;;;;;;8303729;28;19925;-48
2021/07/21 22:42:20;;;;;;;;;;;26.10;47.20;;;;;;8303351;28;19917;-48
2021/07/21 22:46:20;;;;;;;;;;;26.10;47.20;;;;;;8303386;28;19918;-49
2021/07/21 22:50:23;;;;;;;;;;;26.10;47.20;;;;;;8302715;28;20301;-49
2021/07/21 22:54:24;;;;;;;;;;;26.10;47.20;;;;;;8286313;28;19913;-51
2021/07/21 22:58:25;;;;;;;;;;;26.10;47.20;;;;;;8303119;28;20321;-49
2021/07/21 23:02:44;;;;;;;;;;;26.10;47.20;;;;;;8302712;28;19975;-48
2021/07/21 23:07:04;;;;;;;;;;;26.00;47.20;;;;;;8302895;28;19945;-48
2021/07/21 23:11:23;;;;;;;;;;;26.00;47.20;;;;;;8302258;28;20279;-48
2021/07/21 23:15:43;;;;;;;;;;;26.00;47.20;;;;;;8303457;28;19996;-49
2021/07/21 23:19:44;;;;;;;;;;;26.00;47.70;;;;;;8301940;28;19925;-49
2021/07/21 23:23:44;;;;;;;;;;;26.00;47.20;;;;;;8301976;28;19980;-48
2021/07/21 23:27:45;;;;;;;;;;;26.00;47.20;;;;;;8302284;28;19964;-49
2021/07/21 23:31:45;;;;;;;;;;;26.00;47.20;;;;;;8301630;28;19918;-49
2021/07/21 23:35:46;;;;;;;;;;;26.00;47.20;;;;;;8302633;28;19929;-49